Time;durP1;ratioP1;P1;durP2;ratioP2;P2;SDS_P1;SDS_P2;PMS_P1;PMS_P2;Temp;Humidity;BMP_temperature;BMP_pressure;BME280_temperature;BME280_humidity;BME280_pressure;Samples;Min_cycle;Max_cycle;Signal;HPM_P1;HPM_P2
2021/06/10 00:00:35;;;;;;;4.50;4.20;;;25.00;99.90;;;;;;5019020;28;20454;-69
2021/06/10 00:03:01;;;;;;;4.80;4.47;;;25.00;99.90;;;;;;5011197;28;20474;-68
2021/06/10 00:05:27;;;;;;;4.97;4.40;;;25.00;99.90;;;;;;5026166;28;20527;-68
2021/06/10 00:07:54;;;;;;;4.90;4.60;;;25.00;99.90;;;;;;5029960;28;20753;-69
2021/06/10 00:10:23;;;;;;;5.60;5.20;;;24.90;99.90;;;;;;5013314;28;20537;-69
2021/06/10 00:12:50;;;;;;;4.80;4.40;;;24.90;99.90;;;;;;5013841;28;20502;-68
2021/06/10 00:15:18;;;;;;;5.60;5.20;;;24.90;99.90;;;;;;5014565;28;20589;-69
2021/06/10 00:17:46;;;;;;;5.63;4.90;;;24.90;99.90;;;;;;5026878;28;20442;-69
2021/06/10 00:20:16;;;;;;;5.10;4.70;;;24.90;99.90;;;;;;5033737;28;20457;-69
2021/06/10 00:22:43;;;;;;;4.23;4.00;;;24.90;99.90;;;;;;5033426;28;20523;-69
2021/06/10 00:25:10;;;;;;;5.50;5.10;;;24.80;99.90;;;;;;5032696;28;20474;-68
2021/06/10 00:27:37;;;;;;;5.07;4.70;;;24.80;99.90;;;;;;5032702;28;20461;-68
2021/06/10 00:30:03;;;;;;;5.50;5.00;;;24.80;99.90;;;;;;5033588;28;20446;-68
2021/06/10 00:32:30;;;;;;;4.80;4.40;;;24.80;99.90;;;;;;5033878;28;20573;-69
2021/06/10 00:34:57;;;;;;;5.40;5.10;;;24.80;99.90;;;;;;5031994;28;20467;-68
2021/06/10 00:37:23;;;;;;;4.70;4.40;;;24.80;99.90;;;;;;5033630;28;20446;-68
2021/06/10 00:39:49;;;;;;;5.07;4.67;;;24.70;99.90;;;;;;5021025;28;20935;-69
2021/06/10 00:42:16;;;;;;;5.57;4.43;;;24.70;99.90;;;;;;5014323;28;20446;-69
2021/06/10 00:44:42;;;;;;;5.70;5.30;;;24.70;99.90;;;;;;5029078;28;20458;-69
2021/06/10 00:47:08;;;;;;;5.30;4.90;;;24.70;99.90;;;;;;5033438;28;20481;-69
2021/06/10 00:49:35;;;;;;;5.43;5.03;;;24.70;99.90;;;;;;5033698;28;20469;-68
2021/06/10 00:52:03;;;;;;;5.87;5.37;;;24.60;99.90;;;;;;5026921;28;20462;-68
2021/06/10 00:54:29;;;;;;;4.63;4.33;;;24.60;99.90;;;;;;5017086;28;20531;-69
2021/06/10 00:56:56;;;;;;;5.10;4.73;;;24.60;99.90;;;;;;5033375;28;20446;-69
2021/06/10 00:59:22;;;;;;;5.70;5.20;;;24.60;99.90;;;;;;5033712;28;20783;-68
2021/06/10 01:01:49;;;;;;;5.80;5.30;;;24.60;99.90;;;;;;5033325;28;21083;-69
2021/06/10 01:04:15;;;;;;;5.20;4.83;;;24.60;99.90;;;;;;5028622;28;20456;-69
2021/06/10 01:06:50;;;;;;;4.93;4.63;;;24.60;99.90;;;;;;5032828;28;20474;-69
2021/06/10 01:09:24;;;;;;;4.97;4.67;;;24.50;99.90;;;;;;5033168;28;20453;-69
2021/06/10 01:11:59;;;;;;;5.60;5.20;;;24.50;99.90;;;;;;5032705;28;20457;-68
2021/06/10 01:14:33;;;;;;;5.70;5.17;;;24.50;99.90;;;;;;5033069;28;20426;-69
2021/06/10 01:17:00;;;;;;;5.73;5.23;;;24.50;99.90;;;;;;5027094;28;20942;-69
2021/06/10 01:19:50;;;;;;;6.27;5.83;;;24.50;99.90;;;;;;5032777;28;20511;-68
2021/06/10 01:22:25;;;;;;;4.90;4.57;;;24.40;99.90;;;;;;5031915;28;20458;-69
2021/06/10 01:25:03;;;;;;;5.57;5.17;;;24.40;99.90;;;;;;5032167;28;20802;-69
2021/06/10 01:27:34;;;;;;;5.50;5.20;;;24.40;99.90;;;;;;5033116;28;20461;-69
2021/06/10 01:30:07;;;;;;;4.70;4.30;;;24.40;99.90;;;;;;5032528;28;20470;-69
2021/06/10 01:32:36;;;;;;;4.60;4.30;;;24.30;99.90;;;;;;5033221;28;20422;-69
2021/06/10 01:35:03;;;;;;;5.90;4.37;;;24.30;99.90;;;;;;5032647;28;20508;-69
2021/06/10 01:37:31;;;;;;;5.70;5.30;;;24.30;99.90;;;;;;5031515;28;20462;-69
2021/06/10 01:39:59;;;;;;;4.80;4.50;;;24.30;99.90;;;;;;5033183;28;20453;-69
2021/06/10 01:42:25;;;;;;;5.40;5.00;;;24.30;99.90;;;;;;5031889;28;20465;-69
2021/06/10 01:44:53;;;;;;;4.70;4.40;;;24.20;99.90;;;;;;5032565;28;20552;-69
2021/06/10 01:47:21;;;;;;;5.40;5.00;;;24.20;99.90;;;;;;5032883;28;20477;-69
2021/06/10 01:49:49;;;;;;;5.67;5.27;;;24.20;99.90;;;;;;5032818;28;20438;-70
2021/06/10 01:52:15;;;;;;;5.00;4.60;;;24.20;99.90;;;;;;5031654;28;20465;-69
2021/06/10 01:54:42;;;;;;;5.27;4.97;;;24.20;99.90;;;;;;5016017;28;20466;-69
2021/06/10 01:57:09;;;;;;;5.60;5.17;;;24.10;99.90;;;;;;5032175;28;21176;-69
2021/06/10 01:59:36;;;;;;;5.07;4.67;;;24.20;99.90;;;;;;5031724;28;20453;-68
2021/06/10 02:02:05;;;;;;;5.20;4.90;;;24.10;99.90;;;;;;5030205;28;20488;-68
2021/06/10 02:04:32;;;;;;;4.87;4.47;;;24.10;99.90;;;;;;5030532;28;20462;-69
2021/06/10 02:07:00;;;;;;;4.70;4.33;;;24.10;99.90;;;;;;5031558;28;20785;-69
2021/06/10 02:09:28;;;;;;;4.60;4.30;;;24.10;99.90;;;;;;5031069;28;20835;-69
2021/06/10 02:11:55;;;;;;;6.27;5.77;;;24.00;99.90;;;;;;5031002;28;20533;-69
2021/06/10 02:14:22;;;;;;;5.53;5.13;;;24.00;99.90;;;;;;5030981;28;20466;-69
2021/06/10 02:16:50;;;;;;;4.50;4.20;;;24.00;99.90;;;;;;5032289;28;20938;-69
2021/06/10 02:19:18;;;;;;;6.33;5.90;;;24.00;99.90;;;;;;5031976;28;20496;-69
2021/06/10 02:21:45;;;;;;;5.00;4.70;;;24.00;99.90;;;;;;5031370;28;20442;-69
2021/06/10 02:24:12;;;;;;;5.20;4.80;;;23.90;99.90;;;;;;5030644;28;20846;-69
2021/06/10 02:26:39;;;;;;;6.13;5.70;;;23.90;99.90;;;;;;5031537;28;20571;-69
2021/06/10 02:29:06;;;;;;;4.83;4.43;;;23.90;99.90;;;;;;5031254;28;20473;-68
2021/06/10 02:31:32;;;;;;;5.83;5.13;;;23.90;99.90;;;;;;5031585;28;20446;-69
2021/06/10 02:33:59;;;;;;;5.40;5.00;;;23.90;99.90;;;;;;5030428;28;21190;-69
2021/06/10 02:36:27;;;;;;;5.50;5.10;;;23.80;99.90;;;;;;5031066;28;20442;-69
2021/06/10 02:38:56;;;;;;;6.03;5.63;;;23.80;99.90;;;;;;5030855;28;21184;-69
2021/06/10 02:41:27;;;;;;;6.23;5.73;;;23.80;99.90;;;;;;5031047;28;20496;-69
2021/06/10 02:43:55;;;;;;;5.93;5.53;;;23.80;99.90;;;;;;5031528;28;20431;-69
2021/06/10 02:46:22;;;;;;;5.60;5.20;;;23.80;99.90;;;;;;5030773;28;20568;-69
2021/06/10 02:48:51;;;;;;;5.73;5.33;;;23.70;99.90;;;;;;5031245;28;20511;-69
2021/06/10 02:51:18;;;;;;;5.63;5.23;;;23.80;99.90;;;;;;5031113;28;20544;-69
2021/06/10 02:53:48;;;;;;;6.37;5.93;;;23.70;99.90;;;;;;5031274;28;20442;-69
2021/06/10 02:56:17;;;;;;;6.47;5.97;;;23.70;99.90;;;;;;5031599;28;20813;-68
2021/06/10 02:58:45;;;;;;;6.30;5.80;;;23.70;99.90;;;;;;5030872;28;20462;-69
2021/06/10 03:01:12;;;;;;;5.10;4.67;;;23.70;99.90;;;;;;5031463;28;20441;-69
2021/06/10 03:03:39;;;;;;;6.57;6.10;;;23.60;99.90;;;;;;5030912;28;20930;-69
2021/06/10 03:06:07;;;;;;;5.93;5.53;;;23.60;99.90;;;;;;5029906;28;20466;-69
2021/06/10 03:08:33;;;;;;;6.43;5.93;;;23.60;99.90;;;;;;5031170;28;20446;-69
2021/06/10 03:11:05;;;;;;;5.90;5.50;;;23.60;99.90;;;;;;5031231;28;20464;-68
2021/06/10 03:13:33;;;;;;;5.80;5.40;;;23.60;99.90;;;;;;5031335;28;20487;-69
2021/06/10 03:16:00;;;;;;;7.33;6.73;;;23.50;99.90;;;;;;5031309;28;20446;-69
2021/06/10 03:18:27;;;;;;;6.90;6.40;;;23.50;99.90;;;;;;5031233;28;20446;-68
2021/06/10 03:20:53;;;;;;;5.57;5.17;;;23.50;99.90;;;;;;5025033;28;20462;-69
2021/06/10 03:23:20;;;;;;;6.17;5.70;;;23.50;99.90;;;;;;5011781;28;20466;-68
2021/06/10 03:25:49;;;;;;;6.50;6.10;;;23.50;99.90;;;;;;5011166;28;20478;-68
2021/06/10 03:28:17;;;;;;;7.33;6.83;;;23.50;99.90;;;;;;5030830;28;20450;-69
2021/06/10 03:30:43;;;;;;;6.97;6.37;;;23.40;99.90;;;;;;5030589;28;20446;-69
2021/06/10 03:33:09;;;;;;;8.00;7.40;;;23.40;99.90;;;;;;5030456;28;20478;-69
2021/06/10 03:35:37;;;;;;;7.03;6.43;;;23.40;99.90;;;;;;5031036;28;20450;-69
2021/06/10 03:38:05;;;;;;;7.60;6.97;;;23.40;99.90;;;;;;5029039;28;20464;-69
2021/06/10 03:40:32;;;;;;;7.30;6.70;;;23.40;99.90;;;;;;5019531;28;20454;-69
2021/06/10 03:42:58;;;;;;;6.30;5.80;;;23.30;99.90;;;;;;5030896;28;20798;-69
2021/06/10 03:45:27;;;;;;;7.67;7.07;;;23.30;99.90;;;;;;5031211;28;20507;-69
2021/06/10 03:47:53;;;;;;;7.57;7.07;;;23.30;99.90;;;;;;5034246;28;20453;-69
2021/06/10 03:50:20;;;;;;;7.23;6.73;;;23.30;99.90;;;;;;5033930;28;20445;-69
2021/06/10 03:52:46;;;;;;;6.73;6.23;;;23.30;99.90;;;;;;5033761;28;20474;-69
2021/06/10 03:55:13;;;;;;;7.00;6.50;;;23.30;99.90;;;;;;5034592;28;20450;-69
2021/06/10 03:57:39;;;;;;;7.73;7.13;;;23.30;99.90;;;;;;5033990;28;20946;-69
2021/06/10 04:00:08;;;;;;;7.23;6.63;;;23.20;99.90;;;;;;5032361;28;20915;-68
2021/06/10 04:02:36;;;;;;;6.43;6.00;;;23.20;99.90;;;;;;5033452;28;20438;-69
2021/06/10 04:05:03;;;;;;;7.47;6.87;;;23.20;99.90;;;;;;5034191;28;20929;-69
2021/06/10 04:07:30;;;;;;;7.27;6.77;;;23.20;99.90;;;;;;5033338;28;21127;-69
2021/06/10 04:09:56;;;;;;;7.70;7.10;;;23.20;99.90;;;;;;5033898;28;20492;-68
2021/06/10 04:12:22;;;;;;;8.00;7.30;;;23.20;99.90;;;;;;5033688;28;20472;-68
2021/06/10 04:14:48;;;;;;;6.60;6.10;;;23.10;99.90;;;;;;5033476;28;20457;-68
2021/06/10 04:17:14;;;;;;;7.20;6.60;;;23.10;99.90;;;;;;5033338;28;20978;-69
2021/06/10 04:19:42;;;;;;;7.80;7.23;;;23.10;99.90;;;;;;5034133;28;20442;-69
2021/06/10 04:22:09;;;;;;;7.03;6.53;;;23.10;99.90;;;;;;5033647;28;20460;-69
2021/06/10 04:24:35;;;;;;;8.57;6.97;;;23.10;99.90;;;;;;5033490;28;20457;-69
2021/06/10 04:27:02;;;;;;;6.60;6.10;;;23.10;99.90;;;;;;5033552;28;20478;-69
2021/06/10 04:29:28;;;;;;;7.07;6.47;;;23.10;99.90;;;;;;5017753;28;20477;-69
2021/06/10 04:31:54;;;;;;;7.67;7.10;;;23.10;99.90;;;;;;5034066;28;20718;-69
2021/06/10 04:34:22;;;;;;;7.65;7.03;;;23.10;99.90;;;;;;5032824;28;20481;-69
2021/06/10 04:36:49;;;;;;;7.60;7.10;;;23.00;99.90;;;;;;5034016;28;20200;-69
2021/06/10 04:39:15;;;;;;;7.33;6.80;;;23.00;99.90;;;;;;5033902;28;20442;-69
2021/06/10 04:41:42;;;;;;;6.50;6.00;;;23.00;99.90;;;;;;5023627;28;20459;-70
2021/06/10 04:44:08;;;;;;;6.53;6.03;;;23.00;99.90;;;;;;5032783;28;20460;-68
2021/06/10 04:46:34;;;;;;;6.43;5.93;;;23.00;99.90;;;;;;5033371;28;20215;-69
2021/06/10 04:49:01;;;;;;;7.50;7.00;;;23.00;99.90;;;;;;5033201;28;20499;-69
2021/06/10 04:51:27;;;;;;;6.90;6.40;;;23.00;99.90;;;;;;5033321;28;21253;-69
2021/06/10 04:53:55;;;;;;;6.83;6.33;;;23.00;99.90;;;;;;5033334;28;20450;-69
2021/06/10 04:56:23;;;;;;;6.30;5.80;;;23.00;99.90;;;;;;5032851;28;20450;-69
2021/06/10 04:58:49;;;;;;;7.85;7.25;;;23.00;99.90;;;;;;5032087;28;20438;-69
2021/06/10 05:01:16;;;;;;;7.37;6.87;;;23.00;99.90;;;;;;5033416;28;20759;-70
2021/06/10 05:03:42;;;;;;;7.23;6.73;;;23.00;99.90;;;;;;5033521;28;20469;-69
2021/06/10 05:06:09;;;;;;;7.10;6.60;;;23.00;99.90;;;;;;5033234;28;20539;-70
2021/06/10 05:08:35;;;;;;;6.90;6.33;;;22.90;99.90;;;;;;5033225;28;20446;-70
2021/06/10 05:11:03;;;;;;;6.33;5.83;;;22.90;99.90;;;;;;5033013;28;20465;-70
2021/06/10 05:13:29;;;;;;;7.60;7.00;;;23.00;99.90;;;;;;5023543;28;20786;-69
2021/06/10 05:15:55;;;;;;;6.97;6.47;;;23.00;99.90;;;;;;5032858;28;20458;-70
2021/06/10 05:18:22;;;;;;;7.23;6.63;;;23.00;99.90;;;;;;5032599;28;20446;-69
2021/06/10 05:20:48;;;;;;;6.97;6.30;;;22.90;99.90;;;;;;5033116;28;20446;-69
2021/06/10 05:23:15;;;;;;;7.87;7.27;;;22.90;99.90;;;;;;5032251;28;20468;-69
2021/06/10 05:25:41;;;;;;;7.67;7.10;;;23.00;99.90;;;;;;5032810;28;20447;-69
2021/06/10 05:28:08;;;;;;;6.30;5.70;;;23.00;99.90;;;;;;5032556;28;20446;-68
2021/06/10 05:30:35;;;;;;;5.70;5.30;;;23.10;99.90;;;;;;5028268;28;20470;-70
2021/06/10 05:33:01;;;;;;;9.67;8.77;;;23.20;99.90;;;;;;5013057;28;20478;-69
2021/06/10 05:35:27;;;;;;;10.40;9.50;;;23.30;99.90;;;;;;5030670;28;20986;-68
2021/06/10 05:37:54;;;;;;;9.40;8.70;;;23.40;99.90;;;;;;5031541;28;20454;-69
2021/06/10 05:40:20;;;;;;;8.40;7.70;;;23.50;99.90;;;;;;5032915;28;20446;-69
2021/06/10 05:42:46;;;;;;;8.83;7.80;;;23.70;99.90;;;;;;5032680;28;20442;-69
2021/06/10 05:45:14;;;;;;;8.90;8.10;;;23.80;99.90;;;;;;5032128;28;20937;-69
2021/06/10 05:47:41;;;;;;;8.80;7.97;;;23.90;99.90;;;;;;5032163;28;20481;-69
2021/06/10 05:50:08;;;;;;;8.43;7.73;;;23.90;99.90;;;;;;5033053;28;20442;-69
2021/06/10 05:52:35;;;;;;;8.70;8.00;;;24.00;99.90;;;;;;5032417;28;20470;-69
2021/06/10 05:55:01;;;;;;;8.10;7.47;;;24.10;99.90;;;;;;5032253;28;20445;-69
2021/06/10 05:57:27;;;;;;;7.67;6.80;;;24.20;99.90;;;;;;5032274;28;20442;-69
2021/06/10 05:59:54;;;;;;;7.03;6.43;;;24.30;99.90;;;;;;5032496;28;20438;-69
2021/06/10 06:02:21;;;;;;;6.77;6.27;;;24.40;99.90;;;;;;5031815;28;20466;-69
2021/06/10 06:04:47;;;;;;;7.50;6.90;;;24.40;99.90;;;;;;5032177;28;20450;-70
2021/06/10 06:07:14;;;;;;;7.20;6.70;;;24.50;99.90;;;;;;5031999;28;20482;-69
2021/06/10 06:09:41;;;;;;;7.10;6.50;;;24.60;99.90;;;;;;5026515;28;20470;-69
2021/06/10 06:12:10;;;;;;;7.13;6.53;;;24.60;99.90;;;;;;5024555;28;21239;-70
2021/06/10 06:14:38;;;;;;;7.53;6.93;;;24.60;99.90;;;;;;5031665;28;20454;-69
2021/06/10 06:17:06;;;;;;;6.50;6.00;;;24.70;99.90;;;;;;5020877;28;20455;-70
2021/06/10 06:19:35;;;;;;;7.13;6.47;;;24.80;99.90;;;;;;5016833;28;20486;-69
2021/06/10 06:22:03;;;;;;;7.00;6.50;;;24.90;99.90;;;;;;5031671;28;20782;-69
2021/06/10 06:24:31;;;;;;;6.23;5.83;;;25.00;99.90;;;;;;5031510;28;20442;-69
2021/06/10 06:26:57;;;;;;;7.30;6.70;;;25.10;99.90;;;;;;5031117;28;20505;-69
2021/06/10 06:29:23;;;;;;;6.47;6.07;;;25.20;99.90;;;;;;5031549;28;20485;-69
2021/06/10 06:31:50;;;;;;;6.83;6.33;;;25.30;99.90;;;;;;5031289;28;20462;-69
2021/06/10 06:34:16;;;;;;;6.17;5.67;;;25.30;99.90;;;;;;5030745;28;20491;-69
2021/06/10 06:36:43;;;;;;;7.60;6.90;;;25.40;99.90;;;;;;5031561;28;20450;-69
2021/06/10 06:39:10;;;;;;;6.87;6.37;;;25.50;99.90;;;;;;5030776;28;20464;-70
2021/06/10 06:41:36;;;;;;;6.63;6.20;;;25.60;99.90;;;;;;5031508;28;20448;-70
2021/06/10 06:44:03;;;;;;;9.97;6.10;;;25.70;99.90;;;;;;5027413;28;20442;-69
2021/06/10 06:46:30;;;;;;;6.83;6.30;;;25.70;99.80;;;;;;5031399;28;20496;-69
2021/06/10 06:48:56;;;;;;;6.83;6.33;;;25.80;99.60;;;;;;5031672;28;20470;-69
2021/06/10 06:51:23;;;;;;;7.07;6.37;;;25.90;99.30;;;;;;5030698;28;20472;-69
2021/06/10 06:53:50;;;;;;;5.77;5.27;;;25.90;99.10;;;;;;5031110;28;20444;-69
2021/06/10 06:56:17;;;;;;;6.40;5.83;;;26.00;98.90;;;;;;5030102;28;20535;-69
2021/06/10 06:58:44;;;;;;;6.53;6.03;;;26.10;98.60;;;;;;5022508;28;20453;-70
2021/06/10 07:01:10;;;;;;;6.53;5.93;;;26.20;98.70;;;;;;5021612;28;20978;-69
2021/06/10 07:03:36;;;;;;;5.50;5.00;;;26.20;98.10;;;;;;5029688;28;21013;-69
2021/06/10 07:06:03;;;;;;;5.70;5.20;;;26.30;97.80;;;;;;5031191;28;20469;-68
2021/06/10 07:08:31;;;;;;;5.57;5.07;;;26.40;97.50;;;;;;5031077;28;20449;-70
2021/06/10 07:10:59;;;;;;;5.80;5.30;;;26.50;97.40;;;;;;5030522;28;20448;-69
2021/06/10 07:13:26;;;;;;;6.50;6.00;;;26.50;97.00;;;;;;5030306;28;20468;-69
2021/06/10 07:15:53;;;;;;;6.70;6.20;;;26.60;96.70;;;;;;5030743;28;20447;-69
2021/06/10 07:18:19;;;;;;;6.27;5.67;;;26.60;96.40;;;;;;5031019;28;20543;-69
2021/06/10 07:20:46;;;;;;;5.30;4.90;;;26.70;96.10;;;;;;5033968;28;20473;-70
2021/06/10 07:23:12;;;;;;;4.70;4.30;;;26.80;96.00;;;;;;5036090;28;20498;-70
2021/06/10 07:25:38;;;;;;;4.60;4.20;;;26.90;95.80;;;;;;5037722;28;20441;-69
2021/06/10 07:28:06;;;;;;;5.40;4.90;;;26.90;95.50;;;;;;5037360;28;20458;-70
2021/06/10 07:30:34;;;;;;;4.90;4.50;;;27.00;95.20;;;;;;5038103;28;20445;-70
2021/06/10 07:33:01;;;;;;;4.03;3.73;;;27.10;94.80;;;;;;5036373;28;20480;-69
2021/06/10 07:35:30;;;;;;;4.27;3.93;;;27.20;94.70;;;;;;5033037;28;20453;-70
2021/06/10 07:37:56;;;;;;;4.63;4.23;;;27.20;94.20;;;;;;5035898;28;20454;-69
2021/06/10 07:40:23;;;;;;;3.77;3.47;;;27.30;94.00;;;;;;5037852;28;20453;-69
2021/06/10 07:42:49;;;;;;;3.23;2.93;;;27.30;93.60;;;;;;5037419;28;20446;-69
2021/06/10 07:45:19;;;;;;;3.33;3.00;;;27.40;93.70;;;;;;5035881;28;22064;-70
2021/06/10 07:47:45;;;;;;;4.13;3.70;;;27.50;92.90;;;;;;5035080;28;20482;-70
2021/06/10 07:50:11;;;;;;;3.67;3.37;;;27.60;92.90;;;;;;5037687;28;20446;-71
2021/06/10 07:52:39;;;;;;;3.20;2.90;;;27.70;92.80;;;;;;5036812;28;20468;-69
2021/06/10 07:55:07;;;;;;;14.60;5.60;;;27.70;92.10;;;;;;5037867;28;20504;-71
2021/06/10 07:57:33;;;;;;;3.80;3.50;;;27.70;82.00;;;;;;5036572;28;20978;-70
2021/06/10 07:59:59;;;;;;;3.60;3.30;;;27.70;85.70;;;;;;5037593;28;20469;-69
2021/06/10 08:02:28;;;;;;;3.07;2.83;;;27.70;87.90;;;;;;5037572;28;20473;-69
2021/06/10 08:04:54;;;;;;;3.70;3.20;;;27.70;87.20;;;;;;5038352;28;20469;-69
2021/06/10 08:07:20;;;;;;;3.43;3.00;;;27.80;87.40;;;;;;5037686;28;20574;-69
2021/06/10 08:09:46;;;;;;;5.53;2.90;;;27.80;87.60;;;;;;5037213;28;20520;-70
2021/06/10 08:12:13;;;;;;;3.33;2.77;;;27.80;88.30;;;;;;5037756;28;20508;-70
2021/06/10 08:14:39;;;;;;;2.83;2.63;;;27.90;88.70;;;;;;5035984;28;20450;-70
2021/06/10 08:17:06;;;;;;;2.53;2.33;;;28.00;88.00;;;;;;5036842;28;20434;-70
2021/06/10 08:19:33;;;;;;;3.07;2.77;;;28.10;88.20;;;;;;5037098;28;20877;-70
2021/06/10 08:21:59;;;;;;;2.43;2.23;;;28.10;88.00;;;;;;5035650;28;21054;-70
2021/06/10 08:24:26;;;;;;;4.90;4.60;;;28.20;88.40;;;;;;5037039;28;20449;-70
2021/06/10 08:26:52;;;;;;;3.20;2.90;;;28.30;83.60;;;;;;5027801;28;20486;-70
2021/06/10 08:29:18;;;;;;;4.13;2.70;;;28.30;86.40;;;;;;5016848;28;20935;-71
2021/06/10 08:31:46;;;;;;;3.43;3.00;;;28.30;86.60;;;;;;5017953;28;20493;-70
2021/06/10 08:34:12;;;;;;;3.20;3.00;;;28.30;86.40;;;;;;5031407;28;21004;-70
2021/06/10 08:36:40;;;;;;;3.13;2.83;;;28.40;86.40;;;;;;5032817;28;20438;-71
2021/06/10 08:39:07;;;;;;;4.40;3.70;;;28.40;86.50;;;;;;5034441;28;20779;-71
2021/06/10 08:41:34;;;;;;;2.57;2.37;;;28.50;86.20;;;;;;5034135;28;20442;-70
2021/06/10 08:44:00;;;;;;;2.27;2.07;;;28.50;86.00;;;;;;5033940;28;20469;-70
2021/06/10 08:46:29;;;;;;;2.73;2.53;;;28.50;85.10;;;;;;5032536;28;20807;-70
2021/06/10 08:48:56;;;;;;;3.30;2.83;;;28.50;84.90;;;;;;5034232;28;20446;-70
2021/06/10 08:51:22;;;;;;;2.87;2.50;;;28.50;85.50;;;;;;5034584;28;20478;-70
2021/06/10 08:53:50;;;;;;;4.80;2.87;;;28.50;85.00;;;;;;5034015;28;20450;-70
2021/06/10 08:56:16;;;;;;;4.10;2.87;;;28.60;86.20;;;;;;5015504;28;20541;-70
2021/06/10 08:58:43;;;;;;;3.60;2.57;;;28.60;85.80;;;;;;5015175;28;20459;-71
2021/06/10 09:01:13;;;;;;;5.67;2.70;;;28.60;85.40;;;;;;5014995;28;20466;-71
2021/06/10 09:03:40;;;;;;;3.03;2.07;;;28.60;85.30;;;;;;5025841;28;20469;-70
2021/06/10 09:06:08;;;;;;;3.00;2.30;;;28.70;85.20;;;;;;5034464;28;20446;-70
2021/06/10 09:08:35;;;;;;;2.80;2.50;;;28.70;85.30;;;;;;5031834;28;20546;-71
2021/06/10 09:11:10;;;;;;;5.30;2.63;;;28.70;85.30;;;;;;5033369;28;20442;-71
2021/06/10 09:13:42;;;;;;;3.10;2.70;;;28.70;85.20;;;;;;5032490;28;20527;-71
2021/06/10 09:16:20;;;;;;;2.83;2.07;;;28.70;85.10;;;;;;5032821;28;20446;-71
2021/06/10 09:18:59;;;;;;;3.27;2.60;;;28.70;84.90;;;;;;5029945;28;20907;-70
2021/06/10 09:21:27;;;;;;;2.50;2.30;;;28.70;84.70;;;;;;5032253;28;20493;-70
2021/06/10 09:23:53;;;;;;;3.10;2.80;;;28.70;85.00;;;;;;5032281;28;20500;-70
2021/06/10 09:26:21;;;;;;;2.73;2.00;;;28.70;85.00;;;;;;5032531;28;20846;-70
2021/06/10 09:28:51;;;;;;;2.30;2.10;;;28.70;84.90;;;;;;5032878;28;20446;-70
2021/06/10 09:31:31;;;;;;;2.47;2.10;;;28.70;84.90;;;;;;5032368;28;20545;-69
2021/06/10 09:33:57;;;;;;;2.10;1.90;;;28.60;85.60;;;;;;5031465;28;20532;-70
2021/06/10 09:36:24;;;;;;;2.40;2.20;;;28.60;86.00;;;;;;5032346;28;20818;-70
2021/06/10 09:39:08;;;;;;;4.33;3.70;;;28.70;85.60;;;;;;5032117;28;20454;-70
2021/06/10 09:42:04;;;;;;;5.10;3.10;;;28.50;81.40;;;;;;5030675;28;20951;-70
2021/06/10 09:44:41;;;;;;;2.50;2.30;;;28.60;83.50;;;;;;5025595;28;20893;-70
2021/06/10 09:47:08;;;;;;;2.50;2.30;;;28.60;84.50;;;;;;5029654;28;20510;-72
2021/06/10 09:49:35;;;;;;;3.33;3.03;;;28.60;83.60;;;;;;5028055;28;20757;-71
2021/06/10 09:52:02;;;;;;;3.00;2.70;;;28.60;83.60;;;;;;5031943;28;20512;-72
2021/06/10 09:54:42;;;;;;;2.93;2.73;;;28.50;84.60;;;;;;5032269;28;20454;-72
2021/06/10 09:57:13;;;;;;;2.67;2.40;;;28.50;84.60;;;;;;5029925;28;20477;-72
2021/06/10 09:59:57;;;;;;;4.10;2.30;;;28.40;84.20;;;;;;5031132;28;21182;-71
2021/06/10 10:02:26;;;;;;;5.10;2.60;;;28.40;85.00;;;;;;5031112;28;20521;-71
2021/06/10 10:05:04;;;;;;;2.50;2.30;;;28.30;85.00;;;;;;5026858;28;20512;-72
2021/06/10 10:07:32;;;;;;;2.67;2.47;;;28.20;85.10;;;;;;5031565;28;20466;-71
2021/06/10 10:10:00;;;;;;;3.13;2.57;;;28.20;85.50;;;;;;5024493;28;20465;-72
2021/06/10 10:12:30;;;;;;;4.13;2.40;;;28.10;85.80;;;;;;5031908;28;21024;-72
2021/06/10 10:14:57;;;;;;;2.23;2.13;;;28.10;85.70;;;;;;5032383;28;20450;-70
2021/06/10 10:17:26;;;;;;;2.70;2.50;;;28.10;86.30;;;;;;5029908;28;20945;-72
2021/06/10 10:19:52;;;;;;;2.60;2.07;;;28.10;86.40;;;;;;5024547;28;20895;-72
2021/06/10 10:22:18;;;;;;;2.37;2.17;;;28.10;86.70;;;;;;5031879;28;20811;-72
2021/06/10 10:24:44;;;;;;;2.43;2.20;;;28.10;86.20;;;;;;5031418;28;20461;-71
2021/06/10 10:27:12;;;;;;;2.30;2.10;;;28.10;86.80;;;;;;5029210;28;20490;-71
2021/06/10 10:29:43;;;;;;;1.90;1.80;;;28.10;86.70;;;;;;5026930;28;20832;-70
2021/06/10 10:32:12;;;;;;;5.30;2.97;;;28.10;86.70;;;;;;5029944;28;20452;-71
2021/06/10 10:34:40;;;;;;;3.03;2.30;;;28.10;86.30;;;;;;5027222;28;21025;-70
2021/06/10 10:37:21;;;;;;;4.70;2.93;;;28.10;86.50;;;;;;5031284;28;20462;-70
2021/06/10 10:39:48;;;;;;;1.97;1.87;;;28.00;86.90;;;;;;5030637;28;20458;-68
2021/06/10 10:42:26;;;;;;;2.40;2.20;;;28.00;86.50;;;;;;5030841;28;21026;-69
2021/06/10 10:45:11;;;;;;;2.33;2.13;;;28.00;86.80;;;;;;5018676;28;20471;-71
2021/06/10 10:47:45;;;;;;;2.40;2.20;;;28.00;86.90;;;;;;5021893;28;20513;-72
2021/06/10 10:50:17;;;;;;;2.67;1.93;;;28.00;86.70;;;;;;5031648;28;20906;-70
2021/06/10 10:52:55;;;;;;;2.23;2.03;;;28.00;85.90;;;;;;5021703;28;20482;-70
2021/06/10 10:55:27;;;;;;;2.20;2.00;;;27.90;86.30;;;;;;5027577;28;20895;-70
2021/06/10 10:57:59;;;;;;;2.80;2.60;;;27.90;86.70;;;;;;5016925;28;20462;-70
2021/06/10 11:00:51;;;;;;;2.47;1.93;;;27.90;86.10;;;;;;5027564;28;20450;-70
2021/06/10 11:03:25;;;;;;;2.37;1.70;;;27.90;86.30;;;;;;5031060;28;20448;-70
2021/06/10 11:05:52;;;;;;;2.30;2.10;;;27.90;85.50;;;;;;5029628;28;20446;-71
2021/06/10 11:08:20;;;;;;;2.40;1.87;;;27.90;86.20;;;;;;5011630;28;20541;-70
2021/06/10 11:11:00;;;;;;;2.27;1.83;;;27.90;86.20;;;;;;5022384;28;20446;-70
2021/06/10 11:13:27;;;;;;;2.40;2.20;;;27.80;85.20;;;;;;5030938;28;20449;-70
2021/06/10 11:15:57;;;;;;;4.10;2.40;;;27.90;84.90;;;;;;5029931;28;20938;-70
2021/06/10 11:18:47;;;;;;;3.00;1.80;;;27.80;85.50;;;;;;5026761;28;20456;-70
2021/06/10 11:21:29;;;;;;;2.17;1.97;;;27.80;85.70;;;;;;5030562;28;20470;-71
2021/06/10 11:24:11;;;;;;;2.77;2.07;;;27.80;83.90;;;;;;5025552;28;20447;-69
2021/06/10 11:26:46;;;;;;;2.13;1.93;;;27.80;84.50;;;;;;5011492;28;20738;-70
2021/06/10 11:29:14;;;;;;;2.20;2.00;;;27.80;83.50;;;;;;5021290;28;20469;-70
2021/06/10 11:31:42;;;;;;;2.20;2.00;;;27.80;84.10;;;;;;5030081;28;20454;-70
2021/06/10 11:34:29;;;;;;;2.53;1.97;;;27.80;83.70;;;;;;5029647;28;20555;-70
2021/06/10 11:36:55;;;;;;;2.47;2.00;;;27.80;83.30;;;;;;5029764;28;20519;-70
2021/06/10 11:39:24;;;;;;;2.13;1.70;;;27.80;83.60;;;;;;5030560;28;20773;-71
2021/06/10 11:41:51;;;;;;;2.70;1.97;;;27.80;84.40;;;;;;5030892;28;21004;-71
2021/06/10 11:44:18;;;;;;;1.77;1.67;;;27.80;83.50;;;;;;5031303;28;20438;-70
2021/06/10 11:46:46;;;;;;;2.00;1.80;;;27.80;82.70;;;;;;5027359;28;20501;-70
2021/06/10 11:49:12;;;;;;;2.27;2.07;;;27.80;82.80;;;;;;5030354;28;20453;-73
2021/06/10 11:51:39;;;;;;;2.30;2.10;;;27.80;83.50;;;;;;5030990;28;20447;-72
2021/06/10 11:54:07;;;;;;;3.10;2.43;;;27.80;83.80;;;;;;5031252;28;20442;-72
2021/06/10 11:56:34;;;;;;;2.43;1.70;;;27.80;83.60;;;;;;5030121;28;20458;-71
2021/06/10 11:59:14;;;;;;;2.47;1.80;;;27.80;84.60;;;;;;5023694;28;20457;-71
2021/06/10 12:01:41;;;;;;;1.70;1.47;;;27.70;83.50;;;;;;5027747;28;20485;-71
2021/06/10 12:04:09;;;;;;;1.73;1.63;;;27.80;82.50;;;;;;5027765;28;20528;-71
2021/06/10 12:06:35;;;;;;;2.40;2.20;;;27.80;82.80;;;;;;5021833;28;20478;-71
2021/06/10 12:09:12;;;;;;;2.57;2.37;;;27.80;82.20;;;;;;5033046;28;20462;-71
2021/06/10 12:11:48;;;;;;;1.90;1.80;;;27.70;83.10;;;;;;5021108;28;21126;-70
2021/06/10 12:14:14;;;;;;;2.13;2.03;;;27.70;82.80;;;;;;5033983;28;20457;-71
2021/06/10 12:16:40;;;;;;;3.63;2.77;;;27.80;82.20;;;;;;5034257;28;20457;-71
2021/06/10 12:19:17;;;;;;;2.00;1.80;;;27.70;82.80;;;;;;5025326;28;20463;-71
2021/06/10 12:21:43;;;;;;;2.00;1.80;;;27.70;83.90;;;;;;5015933;28;20481;-71
2021/06/10 12:24:09;;;;;;;1.97;1.83;;;27.70;83.40;;;;;;5032146;28;20462;-71
2021/06/10 12:26:35;;;;;;;2.40;2.13;;;27.70;82.10;;;;;;5033674;28;20477;-71
2021/06/10 12:29:04;;;;;;;3.30;2.20;;;27.70;80.00;;;;;;5032859;28;20477;-71
2021/06/10 12:31:33;;;;;;;2.20;2.00;;;27.70;82.30;;;;;;5032858;28;20919;-71
2021/06/10 12:34:01;;;;;;;2.53;2.33;;;27.70;82.50;;;;;;5026243;28;20483;-71
2021/06/10 12:36:32;;;;;;;3.33;3.03;;;27.70;83.00;;;;;;5034951;28;20442;-71
2021/06/10 12:39:00;;;;;;;2.30;2.10;;;27.70;83.30;;;;;;5033181;28;20450;-71
2021/06/10 12:41:29;;;;;;;2.57;2.10;;;27.70;82.00;;;;;;5018099;28;20458;-71
2021/06/10 12:44:07;;;;;;;2.40;1.90;;;27.70;82.80;;;;;;5030975;28;20462;-71
2021/06/10 12:46:48;;;;;;;2.00;1.90;;;27.60;81.90;;;;;;5021224;28;20454;-71
2021/06/10 12:49:15;;;;;;;1.90;1.80;;;27.60;82.40;;;;;;5014045;28;21112;-71
2021/06/10 12:51:44;;;;;;;2.80;2.33;;;27.70;83.00;;;;;;5020032;28;20462;-71
2021/06/10 12:54:12;;;;;;;2.17;2.07;;;27.70;82.90;;;;;;5032512;28;20922;-71